• Join FlightAware (Why Join?)
  • Login
  • US Flag 
09:04AM EDT


 

Airport Tracker/Info


-or-


 

Live Flight TrackerFlight Track Log ✈ UAL582 ✈ 08-Jul-2013 ✈ KORD - KTPA

Flight Track Log - Related Links

Times and Time Zones

All times are in EDT time to prevent confusion due to time zone crossing. See the UAL582 flight status page for this flight to view local times or setup timezone preferences in your user account.

Time Position Orientation Groundspeed Altitude Reporting Facility
EDT Latitude Longitude Course Direction KTS MPH feet Rate Location/Type
08:58PM 41.9000 -87.9000 180° South 168 193 3,700  Level Chicago TRACON
09:00PM 41.6462 -87.7517 180° South  Level Estimated
09:00PM 41.8222 -87.8819 170° South 206 237 5,000  Level Chicago Center
09:01PM 41.5344 -87.7003 176° South  Level Estimated
09:01PM 41.7289 -87.8786 178° South 284 327 7,900  Level Chicago Center
09:02PM 41.4225 -87.6492 187° South  Level Estimated
09:02PM 41.6439 -87.8794 180° South 305 351 10,600  Level Chicago Center
09:03PM 41.5561 -87.8772 179° South 314 361 13,000 1,800 Climbing Chicago Center
09:04PM 41.4567 -87.8781 180° South 350 403 14,400 1,560 Climbing Chicago Center
09:05PM 41.3475 -87.8831 182° South 383 441 16,300 1,860 Climbing Chicago Center
09:06PM 41.2372 -87.8925 184° South 392 451 18,300 1,740 Climbing Chicago Center
09:07PM 41.1242 -87.8886 179° South 403 464 19,900 1,620 Climbing Chicago Center
09:08PM 40.9853 -87.8850 179° South 415 478 21,700 1,500 Climbing Chicago Center
09:09PM 40.8669 -87.8803 178° South 425 489 23,100 1,200 Climbing Chicago Center
09:10PM 40.7458 -87.8756 178° South 434 499 24,300 1,140 Climbing Chicago Center
09:11PM 40.6211 -87.8725 179° South 446 513 25,500 1,140 Climbing Chicago Center
09:12PM 40.4964 -87.8647 177° South 450 518 26,700 960 Climbing Chicago Center
09:13PM 40.3706 -87.8292 168° South 465 535 27,600 900 Climbing Chicago Center
09:14PM 40.2158 -87.7839 167° South 476 548 28,600 900 Climbing Chicago Center
09:15PM 40.0994 -87.7525 168° South 486 559 29,500 1,020 Climbing Chicago Center
09:16PM 39.9403 -87.7067 168° South 491 565 30,800 1,200 Climbing Chicago Center
09:17PM 39.8328 -87.6778 168° South 488 562 31,800 1,140 Climbing Indianapolis Center
09:18PM 39.7008 -87.6406 168° South 488 562 33,000 960 Climbing Indianapolis Center
09:19PM 39.5711 -87.6042 168° South 483 556 33,900 900 Climbing Indianapolis Center
09:20PM 39.4408 -87.5672 168° South 483 556 34,900 480 Climbing Indianapolis Center
09:21PM 39.3100 -87.5306 168° South 483 556 35,000  Climbing Indianapolis Center
09:22PM 39.1542 -87.4881 168° South 481 554 35,000  Level Indianapolis Center
09:23PM 39.0300 -87.4539 168° South 482 555 35,000  Level Indianapolis Center
09:24PM 38.8989 -87.4167 168° South 480 552 35,000  Level Indianapolis Center
09:25PM 38.7689 -87.3808 168° South 479 551 35,000  Level Indianapolis Center
09:26PM 38.6381 -87.3453 168° South 480 552 35,000  Level Indianapolis Center
09:27PM 38.4808 -87.3036 168° South 480 552 35,000  Level Indianapolis Center
09:28PM 38.3500 -87.2697 169° South 484 557 35,000  Level Indianapolis Center
09:29PM 38.2197 -87.2344 168° South 489 563 35,000  Level Indianapolis Center
09:30PM 38.0886 -87.1969 167° South 490 564 35,000  Level Indianapolis Center
09:31PM 37.9569 -87.1606 168° South 487 560 35,000  Level Indianapolis Center
09:32PM 37.8233 -87.1247 168° South 490 564 35,000  Level Indianapolis Center
09:33PM 37.6633 -87.0817 168° South 489 563 35,000  Level Indianapolis Center
09:34PM 37.5303 -87.0467 168° South 487 560 35,000  Level Indianapolis Center
09:35PM 37.4014 -87.0167 170° South 489 563 35,000  Level Indianapolis Center
09:36PM 37.2681 -86.9792 167° South 487 560 35,000  Level Indianapolis Center
09:37PM 37.1333 -86.9722 178° South 479 551 35,000  Level Indianapolis Center
09:38PM 37.0000 -86.9775 182° South 473 544 35,000  Level Indianapolis Center
09:40PM 36.8661 -86.9844 182° South 475 547 35,000  Level Indianapolis Center
09:41PM 36.7094 -86.9911 182° South 478 550 35,000  Level Indianapolis Center
09:42PM 36.5753 -86.9986 183° South 479 551 35,000  Level Indianapolis Center
09:43PM 36.4431 -87.0081 183° South 476 548 35,000  Level Indianapolis Center
09:44PM 36.3092 -87.0181 183° South 487 560 35,000  Level Indianapolis Center
09:45PM 36.1764 -87.0219 181° South 481 554 35,000  Level Indianapolis Center
09:46PM 36.0522 -86.9694 161° South 475 547 35,000  Level Indianapolis Center
09:47PM 35.8911 -86.8903 158° South 470 541 35,000  Level Memphis Center
09:49PM 35.6814 -86.7844 158° South 470 541 35,000  Level Atlanta Center
09:50PM 35.5597 -86.7244 158° South 470 541 35,000  Level Atlanta Center
09:51PM 35.4400 -86.6644 158° South 470 541 35,000  Level Atlanta Center
09:52PM 35.3225 -86.5994 156° South 464 534 35,000  Level Atlanta Center
09:53PM 35.2006 -86.5372 157° South 469 540 35,000  Level Atlanta Center
09:54PM 35.0786 -86.4778 158° South 469 540 35,000  Level Atlanta Center
09:55PM 34.9567 -86.4183 158° South 469 540 35,000  Level Atlanta Center
09:56PM 34.8369 -86.3569 157° South 469 540 35,000  Level Atlanta Center
09:57PM 34.7169 -86.3006 159° South 469 540 35,000  Level Atlanta Center
09:58PM 34.5969 -86.2442 159° South 469 540 35,000  Level Atlanta Center
09:59PM 34.4789 -86.1858 158° South 469 540 35,000  Level Atlanta Center
10:00PM 34.3589 -86.1272 158° South 469 540 35,000  Level Atlanta Center
10:01PM 34.2389 -86.0692 158° South 469 540 35,000  Level Atlanta Center
10:02PM 34.1208 -86.0136 159° South 464 534 35,000  Level Atlanta Center
10:03PM 33.9922 -85.9506 158° South 464 534 35,000  Level Atlanta Center
10:04PM 33.8742 -85.8953 159° South 464 534 35,000  Level Atlanta Center
10:05PM 33.7581 -85.8378 158° South 459 528 35,000  Level Atlanta Center
10:06PM 33.6419 -85.7881 160° South 459 528 35,000  Level Atlanta Center
10:07PM 33.5239 -85.7333 159° South 447 514 35,000  Level Atlanta Center
10:08PM 33.4036 -85.6786 159° South 452 520 35,000  Level Atlanta Center
10:09PM 33.3039 -85.6269 157° South 452 520 35,000  Level Atlanta Center
10:10PM 33.1858 -85.5653 156° South 452 520 35,100 540 Climbing Atlanta Center
10:11PM 33.0675 -85.5111 159° South 452 520 36,100 900 Climbing Atlanta Center
10:12PM 32.9533 -85.4597 159° South 452 520 37,000 420 Climbing Atlanta Center
10:13PM 32.8392 -85.4061 158° South 447 514 37,000  Level Atlanta Center
10:14PM 32.7206 -85.3500 158° South 447 514 37,000  Level Atlanta Center
10:15PM 32.6022 -85.2964 159° South 452 520 37,000  Level Atlanta Center
10:16PM 32.4858 -85.2406 158° South 452 520 37,000  Level Atlanta Center
10:17PM 32.3717 -85.1897 159° South 452 520 37,000  Level Atlanta Center
10:18PM 32.2386 -85.1317 160° South 446 513 37,000  Level Atlanta Center
10:19PM 32.1367 -85.0861 159° South 445 512 37,000  Level Atlanta Center
10:20PM 32.0169 -85.0292 158° South 445 512 37,000  Level Jacksonville Center
10:21PM 31.9072 -84.9778 158° South 459 528 37,000 -60 Level Jacksonville Center
10:22PM 31.7889 -84.9286 161° South 442 509 36,900  Descending Jacksonville Center
10:23PM 31.6772 -84.8747 158° South 442 509 37,000  Climbing Jacksonville Center
10:24PM 31.5675 -84.8117 154° Southeast 442 509 37,000  Level Jacksonville Center
10:25PM 31.4578 -84.7483 154° Southeast 447 514 37,000  Level Jacksonville Center
10:26PM 31.3439 -84.6853 155° Southeast 447 514 37,000  Level Jacksonville Center
10:27PM 31.2319 -84.6225 154° Southeast 442 509 37,000  Level Jacksonville Center
10:28PM 31.1200 -84.5572 153° Southeast 442 509 37,000  Level Jacksonville Center
10:29PM 31.0081 -84.4972 155° Southeast 442 509 37,000  Level Jacksonville Center
10:30PM 30.8961 -84.4322 154° Southeast 442 509 37,000  Level Jacksonville Center
10:31PM 30.7842 -84.3678 154° Southeast 442 509 37,000  Level Jacksonville Center
10:32PM 30.6700 -84.3078 156° South 442 509 37,000  Level Jacksonville Center
10:33PM 30.5558 -84.2411 153° Southeast 447 514 37,000  Level Jacksonville Center
10:34PM 30.4625 -84.1892 154° Southeast 447 514 37,000  Level Jacksonville Center
10:35PM 30.3275 -84.1150 155° Southeast 452 520 37,000  Level Jacksonville Center
10:36PM 30.2092 -84.0511 155° Southeast 463 533 37,000 -60 Level Jacksonville Center
10:37PM 30.0947 -83.9897 155° Southeast 463 533 36,900 -300 Descending Jacksonville Center
10:38PM 29.9889 -83.9286 153° Southeast 463 533 36,500 -1,380 Descending Jacksonville Center
10:39PM 29.8725 -83.8650 155° Southeast 463 533 34,200 -1,680 Descending Jacksonville Center
10:40PM 29.7558 -83.8017 155° Southeast 463 533 33,200 -1,020 Descending Jacksonville Center
10:41PM 29.6394 -83.7383 155° Southeast 463 533 32,200 -960 Descending Jacksonville Center
10:42PM 29.5231 -83.6753 155° Southeast 463 533 31,300 -1,080 Descending Jacksonville Center
10:43PM 29.4106 -83.6125 154° Southeast 458 527 30,100 -1,500 Descending Jacksonville Center
10:44PM 29.2983 -83.5522 155° Southeast 452 520 28,300 -1,560 Descending Jacksonville Center
10:45PM 29.1878 -83.4919 155° Southeast 445 512 27,000 -900 Descending Jacksonville Center
10:46PM 29.0817 -83.4461 159° South 431 496 26,500 -1,320 Descending Jacksonville Center
10:47PM 28.9669 -83.4194 169° South 415 478 24,400 -1,920 Descending Jacksonville Center
10:48PM 28.8564 -83.4047 173° South 415 478 22,700 -1,800 Descending Jacksonville Center
10:49PM 28.7500 -83.3828 170° South 404 465 20,900 -1,920 Descending Jacksonville Center
10:50PM 28.6458 -83.3633 171° South 394 453 18,900 -1,800 Descending Jacksonville Center
10:51PM 28.5478 -83.3344 165° South 382 440 17,300 -2,160 Descending Jacksonville Center
10:52PM 28.4167 -83.2167 142° Southeast 339 390 13,000 -1,920 Descending Tampa TRACON
10:53PM 28.3500 -83.1333 132° Southeast 332 382 12,000 -1,500 Descending Tampa TRACON
10:54PM 28.3000 -83.0500 124° Southeast 330 380 10,100 -1,020 Descending Tampa TRACON
10:55PM 28.2500 -82.9500 120° Southeast 325 374 10,000 -60 Descending Tampa TRACON
10:56PM 28.2000 -82.8833 130° Southeast 323 372 10,000 -420 Level Tampa TRACON
10:57PM 28.1500 -82.8000 124° Southeast 293 337 9,200 -1,620 Descending Tampa TRACON
10:58PM 28.1000 -82.7333 130° Southeast 285 328 6,800 -1,860 Descending Tampa TRACON
10:59PM 28.0500 -82.6500 124° Southeast 276 318 5,400 -900 Descending Tampa TRACON
11:00PM 28.0000 -82.6167 150° Southeast 233 268 5,000 -300 Descending Tampa TRACON
11:01PM 27.9333 -82.6167 180° South 205 236 4,800 -660 Descending Tampa TRACON
11:02PM 27.8833 -82.6167 180° South 204 235 3,700 -1,140 Descending Tampa TRACON